Great — TCYV6 — position and weather

sailwx.info

Track history (hours):
 
Tides and Currents Weather Stations Pressure Air Temp Water Temp Dewpoint Dewpoint Depression Visibility Wind Speed Wind Dir Waves Ship Positions

Great

Last reported at 2017-Feb-18 07:12 UTC. Time now 2017-Feb-23 18:44 UTC.
Position N 38°60' E 003°17'.

Length 186 m; draft 7.6 m.

Type: Cargo ship. MMSI: 271042241.

Date/timePositionNaut miles runAvg speedWind from/ knotsBaromVisibWave heightAir tempDewpointWater temp
2017-Feb-18 07:12N 38°60' E 003°17'811.3
2017-Feb-18 06:31N 39°01' E 003°08'1111.2
2017-Feb-18 05:31N 39°03' E 002°54'2311.5
2017-Feb-18 03:32N 39°12' E 002°26'1111.3
2017-Feb-18 02:33N 39°16' E 002°13'1111.2
2017-Feb-18 01:33N 39°20' E 001°59'1211.3
2017-Feb-18 00:29N 39°24' E 001°45'1211.8
2017-Feb-17 23:29N 39°28' E 001°31'  
2017-Feb-11 02:31N 40°03' E 001°02'1010.1
2017-Feb-11 01:33N 40°03' E 001°14'1010.0
2017-Feb-11 00:33N 40°03' E 001°27'10 9.8
2017-Feb-10 23:33N 40°03' E 001°40'1010.2
2017-Feb-10 22:32N 40°03' E 001°54'1110.6
2017-Feb-10 21:30N 40°03' E 002°08'1010.9
2017-Feb-10 20:33N 40°02' E 002°22'1010.5
2017-Feb-10 19:33N 40°02' E 002°35'1110.8
2017-Feb-10 18:33N 40°02' E 002°49'32 9.5
2017-Feb-10 15:10N 39°56' E 003°31'7 9.9
2017-Feb-10 14:30N 39°53' E 003°39'  
Track history (hours):
 
Tides and Currents Weather Stations Pressure Air Temp Water Temp Dewpoint Dewpoint Depression Visibility Wind Speed Wind Dir Waves Ship Positions

Great

Last reported at 2017-Feb-18 07:12 UTC. Time now 2017-Feb-23 18:44 UTC.
Position N 38°60' E 003°17'.

Length 186 m; draft 7.6 m.

Type: Cargo ship. MMSI: 271042241.

Date/timePositionNaut miles runAvg speedWind from/ knotsBaromVisibWave heightAir tempDewpointWater temp
2017-Feb-18 07:12N 38°60' E 003°17'811.3
2017-Feb-18 06:31N 39°01' E 003°08'1111.2
2017-Feb-18 05:31N 39°03' E 002°54'2311.5
2017-Feb-18 03:32N 39°12' E 002°26'1111.3
2017-Feb-18 02:33N 39°16' E 002°13'1111.2
2017-Feb-18 01:33N 39°20' E 001°59'1211.3
2017-Feb-18 00:29N 39°24' E 001°45'1211.8
2017-Feb-17 23:29N 39°28' E 001°31'  
2017-Feb-11 02:31N 40°03' E 001°02'1010.1
2017-Feb-11 01:33N 40°03' E 001°14'1010.0
2017-Feb-11 00:33N 40°03' E 001°27'10 9.8
2017-Feb-10 23:33N 40°03' E 001°40'1010.2
2017-Feb-10 22:32N 40°03' E 001°54'1110.6
2017-Feb-10 21:30N 40°03' E 002°08'1010.9
2017-Feb-10 20:33N 40°02' E 002°22'1010.5
2017-Feb-10 19:33N 40°02' E 002°35'1110.8
2017-Feb-10 18:33N 40°02' E 002°49'32 9.5
2017-Feb-10 15:10N 39°56' E 003°31'7 9.9
2017-Feb-10 14:30N 39°53' E 003°39'  

Dump ship's entire track history